sensor_id;sensor_type;location;lat;lon;timestamp;P1;durP1;ratioP1;P2;durP2;ratioP2
6580;SDS011;3324;50.796;7.228;2022-07-17T00:01:46;2.00;;;0.40;;
6580;SDS011;3324;50.796;7.228;2022-07-17T00:04:11;0.30;;;0.10;;
6580;SDS011;3324;50.796;7.228;2022-07-17T00:06:37;0.30;;;0.10;;
6580;SDS011;3324;50.796;7.228;2022-07-17T00:09:03;0.60;;;0.60;;
6580;SDS011;3324;50.796;7.228;2022-07-17T00:11:29;2.00;;;0.50;;
6580;SDS011;3324;50.796;7.228;2022-07-17T00:13:54;0.30;;;0.10;;
6580;SDS011;3324;50.796;7.228;2022-07-17T00:16:20;0.30;;;0.10;;
6580;SDS011;3324;50.796;7.228;2022-07-17T00:18:46;0.30;;;0.10;;
6580;SDS011;3324;50.796;7.228;2022-07-17T00:21:11;2.00;;;0.40;;
6580;SDS011;3324;50.796;7.228;2022-07-17T00:23:37;0.30;;;0.10;;
6580;SDS011;3324;50.796;7.228;2022-07-17T00:26:03;0.30;;;0.10;;
6580;SDS011;3324;50.796;7.228;2022-07-17T00:28:28;0.30;;;0.10;;
6580;SDS011;3324;50.796;7.228;2022-07-17T00:30:54;2.00;;;0.40;;
6580;SDS011;3324;50.796;7.228;2022-07-17T00:33:20;0.30;;;0.10;;
6580;SDS011;3324;50.796;7.228;2022-07-17T00:35:46;0.30;;;0.10;;
6580;SDS011;3324;50.796;7.228;2022-07-17T00:38:11;0.30;;;0.10;;
6580;SDS011;3324;50.796;7.228;2022-07-17T00:40:38;0.30;;;0.10;;
6580;SDS011;3324;50.796;7.228;2022-07-17T00:43:04;0.30;;;0.10;;
6580;SDS011;3324;50.796;7.228;2022-07-17T00:45:30;1.90;;;0.40;;
6580;SDS011;3324;50.796;7.228;2022-07-17T00:48:02;2.00;;;0.40;;
6580;SDS011;3324;50.796;7.228;2022-07-17T00:50:34;0.30;;;0.10;;
6580;SDS011;3324;50.796;7.228;2022-07-17T00:53:04;2.00;;;0.40;;
6580;SDS011;3324;50.796;7.228;2022-07-17T00:55:31;0.30;;;0.10;;
6580;SDS011;3324;50.796;7.228;2022-07-17T00:57:56;2.00;;;0.40;;
6580;SDS011;3324;50.796;7.228;2022-07-17T01:00:27;0.30;;;0.10;;
6580;SDS011;3324;50.796;7.228;2022-07-17T01:02:53;1.90;;;0.40;;
6580;SDS011;3324;50.796;7.228;2022-07-17T01:05:19;0.30;;;0.10;;
6580;SDS011;3324;50.796;7.228;2022-07-17T01:07:47;0.30;;;0.10;;
6580;SDS011;3324;50.796;7.228;2022-07-17T01:10:14;0.30;;;0.10;;
6580;SDS011;3324;50.796;7.228;2022-07-17T01:12:47;2.00;;;0.40;;
6580;SDS011;3324;50.796;7.228;2022-07-17T01:15:13;2.00;;;0.40;;
6580;SDS011;3324;50.796;7.228;2022-07-17T01:17:40;1.90;;;0.40;;
6580;SDS011;3324;50.796;7.228;2022-07-17T01:20:08;0.30;;;0.10;;
6580;SDS011;3324;50.796;7.228;2022-07-17T01:22:45;2.10;;;0.40;;
6580;SDS011;3324;50.796;7.228;2022-07-17T01:25:12;0.30;;;0.10;;
6580;SDS011;3324;50.796;7.228;2022-07-17T01:27:38;0.30;;;0.10;;
6580;SDS011;3324;50.796;7.228;2022-07-17T01:30:05;0.30;;;0.10;;
6580;SDS011;3324;50.796;7.228;2022-07-17T01:32:34;0.30;;;0.10;;
6580;SDS011;3324;50.796;7.228;2022-07-17T01:35:02;0.30;;;0.10;;
6580;SDS011;3324;50.796;7.228;2022-07-17T01:37:30;2.00;;;0.40;;
6580;SDS011;3324;50.796;7.228;2022-07-17T01:39:56;0.30;;;0.10;;
6580;SDS011;3324;50.796;7.228;2022-07-17T01:42:22;0.30;;;0.10;;
6580;SDS011;3324;50.796;7.228;2022-07-17T01:44:50;0.30;;;0.10;;
6580;SDS011;3324;50.796;7.228;2022-07-17T01:47:16;0.30;;;0.10;;
6580;SDS011;3324;50.796;7.228;2022-07-17T01:49:46;0.30;;;0.10;;
6580;SDS011;3324;50.796;7.228;2022-07-17T01:52:13;0.30;;;0.10;;
6580;SDS011;3324;50.796;7.228;2022-07-17T01:54:39;2.00;;;0.40;;
6580;SDS011;3324;50.796;7.228;2022-07-17T01:57:05;2.00;;;0.40;;
6580;SDS011;3324;50.796;7.228;2022-07-17T01:59:31;2.00;;;0.40;;
6580;SDS011;3324;50.796;7.228;2022-07-17T02:01:57;0.20;;;0.10;;
6580;SDS011;3324;50.796;7.228;2022-07-17T02:04:23;0.20;;;0.10;;
6580;SDS011;3324;50.796;7.228;2022-07-17T02:06:49;0.20;;;0.10;;
6580;SDS011;3324;50.796;7.228;2022-07-17T02:09:14;0.30;;;0.10;;
6580;SDS011;3324;50.796;7.228;2022-07-17T02:11:40;2.00;;;0.40;;
6580;SDS011;3324;50.796;7.228;2022-07-17T02:14:06;0.20;;;0.10;;
6580;SDS011;3324;50.796;7.228;2022-07-17T02:16:31;0.20;;;0.10;;
6580;SDS011;3324;50.796;7.228;2022-07-17T02:18:57;0.20;;;0.10;;
6580;SDS011;3324;50.796;7.228;2022-07-17T02:21:22;2.00;;;0.40;;
6580;SDS011;3324;50.796;7.228;2022-07-17T02:23:48;0.20;;;0.10;;
6580;SDS011;3324;50.796;7.228;2022-07-17T02:26:13;0.20;;;0.10;;
6580;SDS011;3324;50.796;7.228;2022-07-17T02:28:39;0.20;;;0.10;;
6580;SDS011;3324;50.796;7.228;2022-07-17T02:31:05;2.00;;;0.40;;
6580;SDS011;3324;50.796;7.228;2022-07-17T02:33:30;0.20;;;0.10;;
6580;SDS011;3324;50.796;7.228;2022-07-17T02:35:56;0.20;;;0.10;;
6580;SDS011;3324;50.796;7.228;2022-07-17T02:38:22;0.20;;;0.10;;
6580;SDS011;3324;50.796;7.228;2022-07-17T02:40:47;1.90;;;0.40;;
6580;SDS011;3324;50.796;7.228;2022-07-17T02:43:13;0.20;;;0.10;;
6580;SDS011;3324;50.796;7.228;2022-07-17T02:45:38;0.20;;;0.10;;
6580;SDS011;3324;50.796;7.228;2022-07-17T02:48:04;0.20;;;0.10;;
6580;SDS011;3324;50.796;7.228;2022-07-17T02:50:30;1.90;;;0.40;;
6580;SDS011;3324;50.796;7.228;2022-07-17T02:52:55;0.20;;;0.10;;
6580;SDS011;3324;50.796;7.228;2022-07-17T02:55:21;0.20;;;0.10;;
6580;SDS011;3324;50.796;7.228;2022-07-17T02:57:47;0.20;;;0.10;;
6580;SDS011;3324;50.796;7.228;2022-07-17T03:00:13;1.90;;;0.50;;
6580;SDS011;3324;50.796;7.228;2022-07-17T03:02:40;0.20;;;0.10;;
6580;SDS011;3324;50.796;7.228;2022-07-17T03:05:07;0.20;;;0.10;;
6580;SDS011;3324;50.796;7.228;2022-07-17T03:07:33;0.20;;;0.10;;
6580;SDS011;3324;50.796;7.228;2022-07-17T03:09:59;0.20;;;0.10;;
6580;SDS011;3324;50.796;7.228;2022-07-17T03:12:25;0.20;;;0.10;;
6580;SDS011;3324;50.796;7.228;2022-07-17T03:14:50;0.20;;;0.10;;
6580;SDS011;3324;50.796;7.228;2022-07-17T03:17:16;2.10;;;0.40;;
6580;SDS011;3324;50.796;7.228;2022-07-17T03:19:42;0.20;;;0.10;;
6580;SDS011;3324;50.796;7.228;2022-07-17T03:22:07;0.20;;;0.10;;
6580;SDS011;3324;50.796;7.228;2022-07-17T03:24:33;0.20;;;0.10;;
6580;SDS011;3324;50.796;7.228;2022-07-17T03:26:58;2.00;;;0.50;;
6580;SDS011;3324;50.796;7.228;2022-07-17T03:29:24;0.20;;;0.10;;
6580;SDS011;3324;50.796;7.228;2022-07-17T03:31:50;0.20;;;0.10;;
6580;SDS011;3324;50.796;7.228;2022-07-17T03:34:16;0.20;;;0.10;;
6580;SDS011;3324;50.796;7.228;2022-07-17T03:36:42;0.20;;;0.10;;
6580;SDS011;3324;50.796;7.228;2022-07-17T03:39:07;2.00;;;0.50;;
6580;SDS011;3324;50.796;7.228;2022-07-17T03:41:33;0.20;;;0.20;;
6580;SDS011;3324;50.796;7.228;2022-07-17T03:43:59;0.20;;;0.20;;
6580;SDS011;3324;50.796;7.228;2022-07-17T03:46:24;0.20;;;0.20;;
6580;SDS011;3324;50.796;7.228;2022-07-17T03:48:50;0.30;;;0.20;;
6580;SDS011;3324;50.796;7.228;2022-07-17T03:51:16;2.20;;;0.60;;
6580;SDS011;3324;50.796;7.228;2022-07-17T03:53:42;2.10;;;0.60;;
6580;SDS011;3324;50.796;7.228;2022-07-17T03:56:07;0.30;;;0.20;;
6580;SDS011;3324;50.796;7.228;2022-07-17T03:58:33;0.20;;;0.20;;
6580;SDS011;3324;50.796;7.228;2022-07-17T04:00:59;0.20;;;0.20;;
6580;SDS011;3324;50.796;7.228;2022-07-17T04:03:25;2.20;;;0.50;;
6580;SDS011;3324;50.796;7.228;2022-07-17T04:05:51;2.00;;;0.60;;
6580;SDS011;3324;50.796;7.228;2022-07-17T04:08:17;2.00;;;0.60;;
6580;SDS011;3324;50.796;7.228;2022-07-17T04:10:43;0.20;;;0.20;;
6580;SDS011;3324;50.796;7.228;2022-07-17T04:13:09;2.00;;;0.60;;
6580;SDS011;3324;50.796;7.228;2022-07-17T04:15:36;0.20;;;0.20;;
6580;SDS011;3324;50.796;7.228;2022-07-17T04:18:20;2.00;;;0.50;;
6580;SDS011;3324;50.796;7.228;2022-07-17T04:20:48;0.20;;;0.20;;
6580;SDS011;3324;50.796;7.228;2022-07-17T04:23:14;0.20;;;0.10;;
6580;SDS011;3324;50.796;7.228;2022-07-17T04:25:40;0.20;;;0.20;;
6580;SDS011;3324;50.796;7.228;2022-07-17T04:28:06;6.20;;;5.90;;
6580;SDS011;3324;50.796;7.228;2022-07-17T04:30:33;2.00;;;0.50;;
6580;SDS011;3324;50.796;7.228;2022-07-17T04:32:58;2.00;;;0.50;;
6580;SDS011;3324;50.796;7.228;2022-07-17T04:35:24;1.90;;;0.45;;
6580;SDS011;3324;50.796;7.228;2022-07-17T04:37:50;0.20;;;0.10;;
6580;SDS011;3324;50.796;7.228;2022-07-17T04:40:15;0.20;;;0.20;;
6580;SDS011;3324;50.796;7.228;2022-07-17T04:42:41;0.20;;;0.10;;
6580;SDS011;3324;50.796;7.228;2022-07-17T04:45:07;2.00;;;0.50;;
6580;SDS011;3324;50.796;7.228;2022-07-17T04:47:35;0.20;;;0.20;;
6580;SDS011;3324;50.796;7.228;2022-07-17T04:50:01;0.20;;;0.20;;
6580;SDS011;3324;50.796;7.228;2022-07-17T04:52:27;0.20;;;0.20;;
6580;SDS011;3324;50.796;7.228;2022-07-17T04:54:53;0.10;;;0.10;;
6580;SDS011;3324;50.796;7.228;2022-07-17T04:57:18;2.00;;;0.50;;
6580;SDS011;3324;50.796;7.228;2022-07-17T04:59:44;2.00;;;0.50;;
6580;SDS011;3324;50.796;7.228;2022-07-17T05:02:10;0.30;;;0.20;;
6580;SDS011;3324;50.796;7.228;2022-07-17T05:04:35;0.20;;;0.20;;
6580;SDS011;3324;50.796;7.228;2022-07-17T05:07:01;0.30;;;0.20;;
6580;SDS011;3324;50.796;7.228;2022-07-17T05:09:27;2.00;;;0.60;;
6580;SDS011;3324;50.796;7.228;2022-07-17T05:11:52;0.20;;;0.20;;
6580;SDS011;3324;50.796;7.228;2022-07-17T05:14:18;0.30;;;0.30;;
6580;SDS011;3324;50.796;7.228;2022-07-17T05:16:44;0.20;;;0.10;;
6580;SDS011;3324;50.796;7.228;2022-07-17T05:19:09;2.00;;;0.50;;
6580;SDS011;3324;50.796;7.228;2022-07-17T05:21:35;1.00;;;0.20;;
6580;SDS011;3324;50.796;7.228;2022-07-17T05:24:00;0.30;;;0.20;;
6580;SDS011;3324;50.796;7.228;2022-07-17T05:26:26;0.30;;;0.10;;
6580;SDS011;3324;50.796;7.228;2022-07-17T05:28:52;2.00;;;0.50;;
6580;SDS011;3324;50.796;7.228;2022-07-17T05:31:18;2.00;;;0.50;;
6580;SDS011;3324;50.796;7.228;2022-07-17T05:33:43;0.20;;;0.10;;
6580;SDS011;3324;50.796;7.228;2022-07-17T05:36:09;0.20;;;0.10;;
6580;SDS011;3324;50.796;7.228;2022-07-17T05:38:35;0.20;;;0.20;;
6580;SDS011;3324;50.796;7.228;2022-07-17T05:41:02;0.20;;;0.10;;
6580;SDS011;3324;50.796;7.228;2022-07-17T05:43:28;0.20;;;0.10;;
6580;SDS011;3324;50.796;7.228;2022-07-17T05:45:54;0.20;;;0.10;;
6580;SDS011;3324;50.796;7.228;2022-07-17T05:48:24;0.20;;;0.10;;
6580;SDS011;3324;50.796;7.228;2022-07-17T05:50:50;0.20;;;0.10;;
6580;SDS011;3324;50.796;7.228;2022-07-17T05:53:17;0.20;;;0.10;;
6580;SDS011;3324;50.796;7.228;2022-07-17T05:55:43;0.20;;;0.10;;
6580;SDS011;3324;50.796;7.228;2022-07-17T05:58:09;0.20;;;0.10;;
6580;SDS011;3324;50.796;7.228;2022-07-17T06:00:35;0.20;;;0.10;;
6580;SDS011;3324;50.796;7.228;2022-07-17T06:03:02;0.20;;;0.10;;
6580;SDS011;3324;50.796;7.228;2022-07-17T06:05:28;0.20;;;0.10;;
6580;SDS011;3324;50.796;7.228;2022-07-17T06:07:54;2.00;;;0.40;;
6580;SDS011;3324;50.796;7.228;2022-07-17T06:10:21;0.30;;;0.10;;
6580;SDS011;3324;50.796;7.228;2022-07-17T06:12:47;0.30;;;0.10;;
6580;SDS011;3324;50.796;7.228;2022-07-17T06:15:14;0.30;;;0.10;;
6580;SDS011;3324;50.796;7.228;2022-07-17T06:17:40;0.20;;;0.10;;
6580;SDS011;3324;50.796;7.228;2022-07-17T06:20:06;0.30;;;0.10;;
6580;SDS011;3324;50.796;7.228;2022-07-17T06:22:33;0.30;;;0.10;;
6580;SDS011;3324;50.796;7.228;2022-07-17T06:24:58;1.90;;;0.40;;
6580;SDS011;3324;50.796;7.228;2022-07-17T06:27:24;2.00;;;0.40;;
6580;SDS011;3324;50.796;7.228;2022-07-17T06:29:49;0.30;;;0.10;;
6580;SDS011;3324;50.796;7.228;2022-07-17T06:32:15;0.30;;;0.10;;
6580;SDS011;3324;50.796;7.228;2022-07-17T06:34:41;2.00;;;0.50;;
6580;SDS011;3324;50.796;7.228;2022-07-17T06:37:07;1.00;;;0.13;;
6580;SDS011;3324;50.796;7.228;2022-07-17T06:39:32;0.30;;;0.10;;
6580;SDS011;3324;50.796;7.228;2022-07-17T06:41:58;0.30;;;0.10;;
6580;SDS011;3324;50.796;7.228;2022-07-17T06:44:26;0.30;;;0.10;;
6580;SDS011;3324;50.796;7.228;2022-07-17T06:46:52;0.30;;;0.10;;
6580;SDS011;3324;50.796;7.228;2022-07-17T06:49:17;0.30;;;0.10;;
6580;SDS011;3324;50.796;7.228;2022-07-17T06:51:43;0.30;;;0.10;;
6580;SDS011;3324;50.796;7.228;2022-07-17T06:54:11;0.30;;;0.10;;
6580;SDS011;3324;50.796;7.228;2022-07-17T06:56:37;0.30;;;0.10;;
6580;SDS011;3324;50.796;7.228;2022-07-17T06:59:03;0.30;;;0.10;;
6580;SDS011;3324;50.796;7.228;2022-07-17T07:01:32;2.10;;;0.50;;
6580;SDS011;3324;50.796;7.228;2022-07-17T07:04:01;1.90;;;0.40;;
6580;SDS011;3324;50.796;7.228;2022-07-17T07:06:28;2.10;;;0.50;;
6580;SDS011;3324;50.796;7.228;2022-07-17T07:08:54;2.00;;;0.50;;
6580;SDS011;3324;50.796;7.228;2022-07-17T07:11:20;0.30;;;0.10;;
6580;SDS011;3324;50.796;7.228;2022-07-17T07:13:46;0.30;;;0.10;;
6580;SDS011;3324;50.796;7.228;2022-07-17T07:16:12;0.30;;;0.20;;
6580;SDS011;3324;50.796;7.228;2022-07-17T07:18:38;0.30;;;0.10;;
6580;SDS011;3324;50.796;7.228;2022-07-17T07:21:03;0.30;;;0.10;;
6580;SDS011;3324;50.796;7.228;2022-07-17T07:23:29;1.90;;;0.50;;
6580;SDS011;3324;50.796;7.228;2022-07-17T07:25:54;0.30;;;0.10;;
6580;SDS011;3324;50.796;7.228;2022-07-17T07:28:20;0.30;;;0.10;;
6580;SDS011;3324;50.796;7.228;2022-07-17T07:30:46;1.90;;;0.50;;
6580;SDS011;3324;50.796;7.228;2022-07-17T07:33:12;1.90;;;0.50;;
6580;SDS011;3324;50.796;7.228;2022-07-17T07:35:37;0.30;;;0.10;;
6580;SDS011;3324;50.796;7.228;2022-07-17T07:38:03;0.20;;;0.20;;
6580;SDS011;3324;50.796;7.228;2022-07-17T07:40:29;0.30;;;0.20;;
6580;SDS011;3324;50.796;7.228;2022-07-17T07:42:56;1.90;;;0.50;;
6580;SDS011;3324;50.796;7.228;2022-07-17T07:45:22;1.90;;;0.50;;
6580;SDS011;3324;50.796;7.228;2022-07-17T07:47:48;0.30;;;0.20;;
6580;SDS011;3324;50.796;7.228;2022-07-17T07:50:15;2.00;;;0.60;;
6580;SDS011;3324;50.796;7.228;2022-07-17T07:52:42;1.90;;;0.50;;
6580;SDS011;3324;50.796;7.228;2022-07-17T07:55:08;2.10;;;0.50;;
6580;SDS011;3324;50.796;7.228;2022-07-17T07:57:35;0.30;;;0.20;;
6580;SDS011;3324;50.796;7.228;2022-07-17T08:00:01;0.30;;;0.20;;
6580;SDS011;3324;50.796;7.228;2022-07-17T08:02:31;0.20;;;0.20;;
6580;SDS011;3324;50.796;7.228;2022-07-17T08:04:57;1.80;;;0.60;;
6580;SDS011;3324;50.796;7.228;2022-07-17T08:07:24;1.80;;;0.40;;
6580;SDS011;3324;50.796;7.228;2022-07-17T08:09:51;0.30;;;0.10;;
6580;SDS011;3324;50.796;7.228;2022-07-17T08:12:17;0.30;;;0.20;;
6580;SDS011;3324;50.796;7.228;2022-07-17T08:14:42;2.00;;;0.60;;
6580;SDS011;3324;50.796;7.228;2022-07-17T08:17:08;0.30;;;0.20;;
6580;SDS011;3324;50.796;7.228;2022-07-17T08:19:33;0.30;;;0.30;;
6580;SDS011;3324;50.796;7.228;2022-07-17T08:21:59;2.10;;;1.20;;
6580;SDS011;3324;50.796;7.228;2022-07-17T08:24:25;0.30;;;0.30;;
6580;SDS011;3324;50.796;7.228;2022-07-17T08:26:51;0.50;;;0.50;;
6580;SDS011;3324;50.796;7.228;2022-07-17T08:29:17;1.90;;;1.90;;
6580;SDS011;3324;50.796;7.228;2022-07-17T08:31:42;3.65;;;3.45;;
6580;SDS011;3324;50.796;7.228;2022-07-17T08:34:08;0.35;;;0.35;;
6580;SDS011;3324;50.796;7.228;2022-07-17T08:36:34;2.70;;;2.70;;
6580;SDS011;3324;50.796;7.228;2022-07-17T08:39:00;4.50;;;4.50;;
6580;SDS011;3324;50.796;7.228;2022-07-17T08:41:27;5.93;;;5.63;;
6580;SDS011;3324;50.796;7.228;2022-07-17T08:43:54;5.65;;;5.55;;
6580;SDS011;3324;50.796;7.228;2022-07-17T08:46:21;6.00;;;5.90;;
6580;SDS011;3324;50.796;7.228;2022-07-17T08:48:50;7.35;;;7.25;;
6580;SDS011;3324;50.796;7.228;2022-07-17T08:51:21;6.90;;;6.80;;
6580;SDS011;3324;50.796;7.228;2022-07-17T08:53:49;6.50;;;6.40;;
6580;SDS011;3324;50.796;7.228;2022-07-17T08:56:14;8.20;;;7.90;;
6580;SDS011;3324;50.796;7.228;2022-07-17T08:58:40;7.73;;;7.63;;
6580;SDS011;3324;50.796;7.228;2022-07-17T09:01:05;7.20;;;7.10;;
6580;SDS011;3324;50.796;7.228;2022-07-17T09:03:31;7.30;;;7.00;;
6580;SDS011;3324;50.796;7.228;2022-07-17T09:05:57;6.90;;;6.80;;
6580;SDS011;3324;50.796;7.228;2022-07-17T09:08:23;7.20;;;7.10;;
6580;SDS011;3324;50.796;7.228;2022-07-17T09:10:50;7.50;;;7.40;;
6580;SDS011;3324;50.796;7.228;2022-07-17T09:13:18;7.70;;;7.60;;
6580;SDS011;3324;50.796;7.228;2022-07-17T09:15:47;7.80;;;7.70;;
6580;SDS011;3324;50.796;7.228;2022-07-17T09:18:14;6.80;;;6.70;;
6580;SDS011;3324;50.796;7.228;2022-07-17T09:20:43;7.60;;;7.50;;
6580;SDS011;3324;50.796;7.228;2022-07-17T09:23:11;8.20;;;7.90;;
6580;SDS011;3324;50.796;7.228;2022-07-17T09:25:37;7.90;;;7.80;;
6580;SDS011;3324;50.796;7.228;2022-07-17T09:28:05;7.40;;;7.30;;
6580;SDS011;3324;50.796;7.228;2022-07-17T09:30:34;7.00;;;6.90;;
6580;SDS011;3324;50.796;7.228;2022-07-17T09:33:02;7.20;;;7.10;;
6580;SDS011;3324;50.796;7.228;2022-07-17T09:35:30;8.20;;;7.90;;
6580;SDS011;3324;50.796;7.228;2022-07-17T09:37:55;9.00;;;8.80;;
6580;SDS011;3324;50.796;7.228;2022-07-17T09:40:21;8.60;;;8.40;;
6580;SDS011;3324;50.796;7.228;2022-07-17T09:43:10;10.10;;;9.60;;
6580;SDS011;3324;50.796;7.228;2022-07-17T09:45:37;10.20;;;9.70;;
6580;SDS011;3324;50.796;7.228;2022-07-17T09:48:03;8.70;;;8.50;;
6580;SDS011;3324;50.796;7.228;2022-07-17T09:50:29;8.90;;;8.70;;
6580;SDS011;3324;50.796;7.228;2022-07-17T09:52:56;8.70;;;8.50;;
6580;SDS011;3324;50.796;7.228;2022-07-17T09:55:26;9.40;;;9.10;;
6580;SDS011;3324;50.796;7.228;2022-07-17T09:57:54;9.70;;;9.25;;
6580;SDS011;3324;50.796;7.228;2022-07-17T10:00:20;9.80;;;9.30;;
6580;SDS011;3324;50.796;7.228;2022-07-17T10:02:47;10.50;;;9.90;;
6580;SDS011;3324;50.796;7.228;2022-07-17T10:05:14;9.50;;;9.20;;
6580;SDS011;3324;50.796;7.228;2022-07-17T10:07:41;10.20;;;9.60;;
6580;SDS011;3324;50.796;7.228;2022-07-17T10:10:10;10.63;;;10.03;;
6580;SDS011;3324;50.796;7.228;2022-07-17T10:12:38;10.10;;;9.60;;
6580;SDS011;3324;50.796;7.228;2022-07-17T10:15:05;9.00;;;8.70;;
6580;SDS011;3324;50.796;7.228;2022-07-17T10:17:32;9.40;;;9.10;;
6580;SDS011;3324;50.796;7.228;2022-07-17T10:19:58;9.40;;;9.10;;
6580;SDS011;3324;50.796;7.228;2022-07-17T10:22:24;10.30;;;9.80;;
6580;SDS011;3324;50.796;7.228;2022-07-17T10:24:52;11.10;;;10.50;;
6580;SDS011;3324;50.796;7.228;2022-07-17T10:27:20;10.50;;;10.10;;
6580;SDS011;3324;50.796;7.228;2022-07-17T10:32:24;10.17;;;9.77;;
6580;SDS011;3324;50.796;7.228;2022-07-17T10:37:31;10.20;;;9.80;;
6580;SDS011;3324;50.796;7.228;2022-07-17T10:45:10;10.30;;;9.90;;
6580;SDS011;3324;50.796;7.228;2022-07-17T10:47:50;11.60;;;10.90;;
6580;SDS011;3324;50.796;7.228;2022-07-17T10:50:30;10.70;;;10.30;;
6580;SDS011;3324;50.796;7.228;2022-07-17T10:53:38;10.80;;;10.30;;
6580;SDS011;3324;50.796;7.228;2022-07-17T10:55:48;11.55;;;10.85;;
6580;SDS011;3324;50.796;7.228;2022-07-17T10:58:23;11.10;;;10.60;;
6580;SDS011;3324;50.796;7.228;2022-07-17T11:03:47;10.80;;;10.30;;
6580;SDS011;3324;50.796;7.228;2022-07-17T11:06:19;11.40;;;10.90;;
6580;SDS011;3324;50.796;7.228;2022-07-17T11:11:33;10.40;;;10.00;;
6580;SDS011;3324;50.796;7.228;2022-07-17T11:14:16;10.80;;;10.20;;
6580;SDS011;3324;50.796;7.228;2022-07-17T11:16:47;10.50;;;10.10;;
6580;SDS011;3324;50.796;7.228;2022-07-17T11:21:56;10.75;;;10.25;;
6580;SDS011;3324;50.796;7.228;2022-07-17T11:24:24;11.30;;;10.70;;
6580;SDS011;3324;50.796;7.228;2022-07-17T11:26:51;10.00;;;9.60;;
6580;SDS011;3324;50.796;7.228;2022-07-17T11:29:17;11.20;;;10.60;;
6580;SDS011;3324;50.796;7.228;2022-07-17T11:31:44;10.40;;;10.00;;
6580;SDS011;3324;50.796;7.228;2022-07-17T11:34:10;11.00;;;10.50;;
6580;SDS011;3324;50.796;7.228;2022-07-17T11:36:45;10.60;;;10.20;;
6580;SDS011;3324;50.796;7.228;2022-07-17T11:39:12;11.50;;;11.00;;
6580;SDS011;3324;50.796;7.228;2022-07-17T11:41:40;11.70;;;11.20;;
6580;SDS011;3324;50.796;7.228;2022-07-17T11:44:08;12.10;;;11.50;;
6580;SDS011;3324;50.796;7.228;2022-07-17T11:46:36;12.00;;;11.40;;
6580;SDS011;3324;50.796;7.228;2022-07-17T11:49:02;11.90;;;11.30;;
6580;SDS011;3324;50.796;7.228;2022-07-17T11:51:41;12.67;;;12.07;;
6580;SDS011;3324;50.796;7.228;2022-07-17T11:56:35;13.20;;;12.30;;
6580;SDS011;3324;50.796;7.228;2022-07-17T11:59:02;12.52;;;11.93;;
6580;SDS011;3324;50.796;7.228;2022-07-17T12:01:29;12.60;;;12.00;;
6580;SDS011;3324;50.796;7.228;2022-07-17T12:04:03;12.90;;;12.20;;
6580;SDS011;3324;50.796;7.228;2022-07-17T12:06:29;14.00;;;13.10;;
6580;SDS011;3324;50.796;7.228;2022-07-17T12:08:54;13.90;;;13.10;;
6580;SDS011;3324;50.796;7.228;2022-07-17T12:11:20;14.10;;;13.30;;
6580;SDS011;3324;50.796;7.228;2022-07-17T12:13:46;15.20;;;14.10;;
6580;SDS011;3324;50.796;7.228;2022-07-17T12:16:23;15.20;;;14.10;;
6580;SDS011;3324;50.796;7.228;2022-07-17T12:18:58;14.85;;;13.95;;
6580;SDS011;3324;50.796;7.228;2022-07-17T12:21:35;14.70;;;13.70;;
6580;SDS011;3324;50.796;7.228;2022-07-17T12:24:18;14.68;;;13.68;;
6580;SDS011;3324;50.796;7.228;2022-07-17T12:26:50;13.00;;;12.30;;
6580;SDS011;3324;50.796;7.228;2022-07-17T12:29:16;12.10;;;11.50;;
6580;SDS011;3324;50.796;7.228;2022-07-17T12:31:42;11.90;;;11.30;;
6580;SDS011;3324;50.796;7.228;2022-07-17T12:34:08;12.10;;;11.50;;
6580;SDS011;3324;50.796;7.228;2022-07-17T12:36:34;13.40;;;12.70;;
6580;SDS011;3324;50.796;7.228;2022-07-17T12:38:59;14.60;;;13.60;;
6580;SDS011;3324;50.796;7.228;2022-07-17T12:41:25;14.10;;;13.30;;
6580;SDS011;3324;50.796;7.228;2022-07-17T12:43:51;13.60;;;12.80;;
6580;SDS011;3324;50.796;7.228;2022-07-17T12:46:17;14.40;;;13.40;;
6580;SDS011;3324;50.796;7.228;2022-07-17T12:48:43;12.50;;;11.90;;
6580;SDS011;3324;50.796;7.228;2022-07-17T12:51:09;11.95;;;11.35;;
6580;SDS011;3324;50.796;7.228;2022-07-17T12:53:38;13.70;;;12.80;;
6580;SDS011;3324;50.796;7.228;2022-07-17T12:56:08;12.70;;;11.90;;
6580;SDS011;3324;50.796;7.228;2022-07-17T12:58:34;14.60;;;13.60;;
6580;SDS011;3324;50.796;7.228;2022-07-17T13:01:01;14.55;;;13.55;;
6580;SDS011;3324;50.796;7.228;2022-07-17T13:03:28;13.50;;;12.60;;
6580;SDS011;3324;50.796;7.228;2022-07-17T13:05:54;13.83;;;13.03;;
6580;SDS011;3324;50.796;7.228;2022-07-17T13:08:19;13.60;;;12.80;;
6580;SDS011;3324;50.796;7.228;2022-07-17T13:10:45;14.90;;;13.90;;
6580;SDS011;3324;50.796;7.228;2022-07-17T13:13:10;14.50;;;13.60;;
6580;SDS011;3324;50.796;7.228;2022-07-17T13:15:36;14.30;;;13.40;;
6580;SDS011;3324;50.796;7.228;2022-07-17T13:18:02;14.00;;;13.20;;
6580;SDS011;3324;50.796;7.228;2022-07-17T13:20:28;14.05;;;13.25;;
6580;SDS011;3324;50.796;7.228;2022-07-17T13:22:54;15.80;;;14.40;;
6580;SDS011;3324;50.796;7.228;2022-07-17T13:25:20;16.00;;;14.80;;
6580;SDS011;3324;50.796;7.228;2022-07-17T13:27:45;15.00;;;14.10;;
6580;SDS011;3324;50.796;7.228;2022-07-17T13:30:11;16.60;;;15.00;;
6580;SDS011;3324;50.796;7.228;2022-07-17T13:32:37;14.00;;;13.20;;
6580;SDS011;3324;50.796;7.228;2022-07-17T13:35:03;14.20;;;13.40;;
6580;SDS011;3324;50.796;7.228;2022-07-17T13:37:31;13.80;;;13.00;;
6580;SDS011;3324;50.796;7.228;2022-07-17T13:39:56;14.20;;;13.40;;
6580;SDS011;3324;50.796;7.228;2022-07-17T13:42:22;15.17;;;14.07;;
6580;SDS011;3324;50.796;7.228;2022-07-17T13:44:47;14.10;;;13.30;;
6580;SDS011;3324;50.796;7.228;2022-07-17T13:47:13;14.20;;;13.40;;
6580;SDS011;3324;50.796;7.228;2022-07-17T13:49:39;13.70;;;12.90;;
6580;SDS011;3324;50.796;7.228;2022-07-17T13:52:04;14.07;;;13.27;;
6580;SDS011;3324;50.796;7.228;2022-07-17T13:54:30;15.60;;;14.20;;
6580;SDS011;3324;50.796;7.228;2022-07-17T13:56:56;13.50;;;12.70;;
6580;SDS011;3324;50.796;7.228;2022-07-17T13:59:22;14.33;;;13.43;;
6580;SDS011;3324;50.796;7.228;2022-07-17T14:01:48;15.15;;;13.95;;
6580;SDS011;3324;50.796;7.228;2022-07-17T14:04:14;14.20;;;13.40;;
6580;SDS011;3324;50.796;7.228;2022-07-17T14:06:39;14.90;;;14.00;;
6580;SDS011;3324;50.796;7.228;2022-07-17T14:09:05;15.10;;;14.00;;
6580;SDS011;3324;50.796;7.228;2022-07-17T14:11:30;14.10;;;13.30;;
6580;SDS011;3324;50.796;7.228;2022-07-17T14:13:56;14.60;;;13.60;;
6580;SDS011;3324;50.796;7.228;2022-07-17T14:16:22;13.70;;;12.90;;
6580;SDS011;3324;50.796;7.228;2022-07-17T14:18:47;14.40;;;13.60;;
6580;SDS011;3324;50.796;7.228;2022-07-17T14:21:29;15.73;;;14.33;;
6580;SDS011;3324;50.796;7.228;2022-07-17T14:23:59;13.50;;;12.80;;
6580;SDS011;3324;50.796;7.228;2022-07-17T14:26:25;15.70;;;14.30;;
6580;SDS011;3324;50.796;7.228;2022-07-17T14:28:51;13.60;;;12.80;;
6580;SDS011;3324;50.796;7.228;2022-07-17T14:31:17;13.53;;;12.80;;
6580;SDS011;3324;50.796;7.228;2022-07-17T14:33:43;14.23;;;13.27;;
6580;SDS011;3324;50.796;7.228;2022-07-17T14:36:09;13.43;;;12.73;;
6580;SDS011;3324;50.796;7.228;2022-07-17T14:38:35;12.30;;;11.70;;
6580;SDS011;3324;50.796;7.228;2022-07-17T14:41:01;12.95;;;12.25;;
6580;SDS011;3324;50.796;7.228;2022-07-17T14:43:27;13.80;;;12.90;;
6580;SDS011;3324;50.796;7.228;2022-07-17T14:45:54;14.20;;;13.20;;
6580;SDS011;3324;50.796;7.228;2022-07-17T14:48:20;14.80;;;13.50;;
6580;SDS011;3324;50.796;7.228;2022-07-17T14:50:46;13.10;;;12.40;;
6580;SDS011;3324;50.796;7.228;2022-07-17T14:53:12;12.60;;;12.00;;
6580;SDS011;3324;50.796;7.228;2022-07-17T14:55:38;13.30;;;12.40;;
6580;SDS011;3324;50.796;7.228;2022-07-17T14:58:03;11.90;;;11.30;;
6580;SDS011;3324;50.796;7.228;2022-07-17T15:00:29;12.90;;;12.20;;
6580;SDS011;3324;50.796;7.228;2022-07-17T15:02:55;12.90;;;12.20;;
6580;SDS011;3324;50.796;7.228;2022-07-17T15:05:20;12.50;;;11.90;;
6580;SDS011;3324;50.796;7.228;2022-07-17T15:07:46;13.50;;;12.60;;
6580;SDS011;3324;50.796;7.228;2022-07-17T15:10:12;12.48;;;11.88;;
6580;SDS011;3324;50.796;7.228;2022-07-17T15:12:38;12.30;;;11.70;;
6580;SDS011;3324;50.796;7.228;2022-07-17T15:15:03;13.70;;;12.50;;
6580;SDS011;3324;50.796;7.228;2022-07-17T15:17:29;12.20;;;11.60;;
6580;SDS011;3324;50.796;7.228;2022-07-17T15:19:55;13.20;;;12.50;;
6580;SDS011;3324;50.796;7.228;2022-07-17T15:22:21;13.25;;;12.35;;
6580;SDS011;3324;50.796;7.228;2022-07-17T15:24:46;13.10;;;12.40;;
6580;SDS011;3324;50.796;7.228;2022-07-17T15:27:12;13.10;;;12.40;;